Time;durP1;ratioP1;P1;durP2;ratioP2;P2;SDS_P1;SDS_P2;PMS_P1;PMS_P2;Temp;Humidity;BMP_temperature;BMP_pressure;BME280_temperature;BME280_humidity;BME280_pressure;Samples;Min_cycle;Max_cycle;Signal;HPM_P1;HPM_P2
2023/04/11 00:00:17;;;;;;;9.52;2.53;;;11.60;93.50;;;;;;5113700;28;20025;-75
2023/04/11 00:02:42;;;;;;;9.00;2.80;;;11.60;93.60;;;;;;5114613;28;20508;-76
2023/04/11 00:05:08;;;;;;;9.95;2.90;;;11.60;93.60;;;;;;5114507;28;20032;-75
2023/04/11 00:07:34;;;;;;;9.20;2.40;;;11.60;93.90;;;;;;5114507;28;20034;-75
2023/04/11 00:10:01;;;;;;;11.70;3.13;;;11.60;93.60;;;;;;5113338;28;20099;-75
2023/04/11 00:12:26;;;;;;;10.05;3.30;;;11.50;93.50;;;;;;5113385;28;20032;-76
2023/04/11 00:14:52;;;;;;;13.63;2.75;;;11.50;93.60;;;;;;5114505;28;20027;-75
2023/04/11 00:17:19;;;;;;;10.40;2.47;;;11.50;93.60;;;;;;5113319;28;20020;-76
2023/04/11 00:19:45;;;;;;;13.23;2.78;;;11.50;93.30;;;;;;5114303;28;20025;-76
2023/04/11 00:22:12;;;;;;;17.67;3.13;;;11.50;93.40;;;;;;5114251;28;20024;-76
2023/04/11 00:24:38;;;;;;;15.48;3.15;;;11.50;93.50;;;;;;5114202;28;20087;-75
2023/04/11 00:27:05;;;;;;;12.70;3.38;;;11.60;93.40;;;;;;5114198;28;20031;-75
2023/04/11 00:29:32;;;;;;;8.90;3.00;;;11.40;93.10;;;;;;5114019;28;20084;-76
2023/04/11 00:31:59;;;;;;;12.32;3.50;;;11.40;93.20;;;;;;5113090;28;20028;-75
2023/04/11 00:34:26;;;;;;;13.98;3.33;;;11.40;93.20;;;;;;5096039;28;20084;-75
2023/04/11 00:36:51;;;;;;;9.05;3.20;;;11.40;93.10;;;;;;5114039;28;20024;-75
2023/04/11 00:39:19;;;;;;;16.17;4.88;;;11.30;92.90;;;;;;5114071;28;20102;-76
2023/04/11 00:41:45;;;;;;;13.00;3.25;;;11.40;92.80;;;;;;5112947;28;20035;-75
2023/04/11 00:44:12;;;;;;;19.25;4.25;;;11.40;92.70;;;;;;5113651;28;20468;-75
2023/04/11 00:46:41;;;;;;;11.30;3.10;;;11.30;92.70;;;;;;5113860;28;20032;-76
2023/04/11 00:49:07;;;;;;;15.02;3.50;;;11.30;92.70;;;;;;5112752;28;20105;-76
2023/04/11 00:51:34;;;;;;;15.10;3.60;;;11.30;92.60;;;;;;5113734;28;20036;-75
2023/04/11 00:54:00;;;;;;;15.63;4.47;;;11.30;92.50;;;;;;5113744;28;20020;-76
2023/04/11 00:56:26;;;;;;;21.02;4.03;;;11.30;92.60;;;;;;5113700;28;20024;-75
2023/04/11 00:58:52;;;;;;;5.35;2.67;;;11.30;92.60;;;;;;5113718;28;20035;-75
2023/04/11 01:01:18;;;;;;;14.75;4.45;;;11.30;92.40;;;;;;5113610;28;20085;-75
2023/04/11 01:03:44;;;;;;;15.05;3.50;;;11.20;92.50;;;;;;5113629;28;20046;-76
2023/04/11 01:06:12;;;;;;;15.27;3.03;;;11.10;92.60;;;;;;5113609;28;20032;-76
2023/04/11 01:08:40;;;;;;;12.38;2.97;;;11.10;92.70;;;;;;5113470;28;20028;-75
2023/04/11 01:11:07;;;;;;;14.70;3.42;;;11.10;92.70;;;;;;5112646;28;20039;-75
2023/04/11 01:13:35;;;;;;;13.98;3.22;;;11.10;93.20;;;;;;5112601;28;20028;-75
2023/04/11 01:16:02;;;;;;;20.58;5.30;;;11.10;92.70;;;;;;5113498;28;20028;-75
2023/04/11 01:18:28;;;;;;;16.13;3.63;;;11.10;92.80;;;;;;5113453;28;20471;-75
2023/04/11 01:20:54;;;;;;;19.70;3.97;;;11.00;92.70;;;;;;5113457;28;20031;-75
2023/04/11 01:23:23;;;;;;;14.35;3.50;;;11.00;92.70;;;;;;5113380;28;20047;-75
2023/04/11 01:25:50;;;;;;;14.88;3.42;;;11.00;92.70;;;;;;5112324;28;20020;-75
2023/04/11 01:28:17;;;;;;;18.52;3.88;;;11.00;92.60;;;;;;5112379;28;20087;-75
2023/04/11 01:30:42;;;;;;;15.07;3.97;;;11.00;92.60;;;;;;5113348;28;20050;-75
2023/04/11 01:33:09;;;;;;;15.20;3.65;;;11.00;92.60;;;;;;5112455;28;20024;-75
2023/04/11 01:35:35;;;;;;;14.93;3.25;;;10.90;92.60;;;;;;5113319;28;20037;-75
2023/04/11 01:38:02;;;;;;;15.23;3.35;;;10.90;92.50;;;;;;5112358;28;20055;-75
2023/04/11 01:40:28;;;;;;;20.33;4.28;;;10.90;92.50;;;;;;5112228;28;20043;-75
2023/04/11 01:42:54;;;;;;;16.13;4.20;;;10.90;92.50;;;;;;5113067;28;20052;-75
2023/04/11 01:45:21;;;;;;;17.02;3.83;;;10.90;92.60;;;;;;5113173;28;20028;-75
2023/04/11 01:47:47;;;;;;;14.15;3.75;;;10.90;92.60;;;;;;5116680;28;20020;-75
2023/04/11 01:50:12;;;;;;;17.02;3.63;;;10.90;92.60;;;;;;5117066;28;20096;-75
2023/04/11 01:52:38;;;;;;;18.17;3.97;;;10.90;92.60;;;;;;5117113;28;20032;-76
2023/04/11 01:55:04;;;;;;;11.60;3.65;;;10.80;92.60;;;;;;5117012;28;20027;-75
2023/04/11 01:57:30;;;;;;;20.48;3.28;;;10.80;92.60;;;;;;5117041;28;20080;-75
2023/04/11 01:59:56;;;;;;;13.77;3.95;;;10.80;92.60;;;;;;5116984;28;20036;-75
2023/04/11 02:02:22;;;;;;;18.88;3.45;;;10.80;92.80;;;;;;5116951;28;20035;-75
2023/04/11 02:04:47;;;;;;;17.33;3.67;;;10.80;92.80;;;;;;5116870;28;20031;-76
2023/04/11 02:07:13;;;;;;;13.35;2.78;;;10.90;92.80;;;;;;5116820;28;20111;-75
2023/04/11 02:09:39;;;;;;;16.15;3.40;;;10.80;92.50;;;;;;5098816;28;20024;-76
2023/04/11 02:12:04;;;;;;;11.82;2.90;;;10.80;92.40;;;;;;5116791;28;20020;-76
2023/04/11 02:14:44;;;;;;;17.98;2.80;;;10.80;92.50;;;;;;5115804;28;20124;-75
2023/04/11 02:17:11;;;;;;;10.48;2.50;;;10.80;92.60;;;;;;5116718;28;20099;-75
2023/04/11 02:19:39;;;;;;;10.25;2.40;;;10.80;92.50;;;;;;5116627;28;20024;-76
2023/04/11 02:22:08;;;;;;;14.20;2.60;;;10.80;92.80;;;;;;5115886;28;20031;-75
2023/04/11 02:24:34;;;;;;;11.68;3.47;;;10.70;92.50;;;;;;5116647;28;20032;-76
2023/04/11 02:27:00;;;;;;;12.88;2.88;;;10.80;92.60;;;;;;5116438;28;20057;-75
2023/04/11 02:29:27;;;;;;;10.10;3.22;;;10.80;92.60;;;;;;5115392;28;20035;-75
2023/04/11 02:31:52;;;;;;;17.88;3.30;;;10.80;92.50;;;;;;5116438;28;20084;-75
2023/04/11 02:34:19;;;;;;;12.45;2.60;;;10.80;92.50;;;;;;5115351;28;20032;-75
2023/04/11 02:36:44;;;;;;;13.65;2.95;;;10.80;92.60;;;;;;5116343;28;20043;-75
2023/04/11 02:39:11;;;;;;;14.25;2.92;;;10.80;92.70;;;;;;5116243;28;20035;-76
2023/04/11 02:41:41;;;;;;;17.08;3.13;;;10.70;92.80;;;;;;5115239;28;20038;-76
2023/04/11 02:44:10;;;;;;;13.85;2.63;;;10.70;92.80;;;;;;5116052;28;20052;-75
2023/04/11 02:46:35;;;;;;;11.52;2.42;;;10.70;92.80;;;;;;5116122;28;20028;-75
2023/04/11 02:49:02;;;;;;;17.08;3.28;;;10.70;92.70;;;;;;5115980;28;20036;-76
2023/04/11 02:51:28;;;;;;;15.38;3.75;;;10.60;92.70;;;;;;5116037;28;20016;-75
2023/04/11 02:53:53;;;;;;;15.45;2.97;;;10.60;92.70;;;;;;5115975;28;20100;-76
2023/04/11 02:56:19;;;;;;;11.80;2.30;;;10.50;92.80;;;;;;5115919;28;20552;-76
2023/04/11 02:58:45;;;;;;;15.65;2.30;;;10.50;92.80;;;;;;5115785;28;20066;-75
2023/04/11 03:01:13;;;;;;;14.25;2.55;;;10.50;92.60;;;;;;5114790;28;20027;-75
2023/04/11 03:03:40;;;;;;;14.82;2.63;;;10.50;92.70;;;;;;5115784;28;20047;-75
2023/04/11 03:06:06;;;;;;;10.23;2.35;;;10.50;92.70;;;;;;5115909;28;20072;-75
2023/04/11 03:08:32;;;;;;;10.73;1.83;;;10.40;92.60;;;;;;5114592;28;20046;-75
2023/04/11 03:10:58;;;;;;;14.45;2.53;;;10.40;92.70;;;;;;5115790;28;20016;-75
2023/04/11 03:13:25;;;;;;;12.35;2.75;;;10.50;92.60;;;;;;5115537;28;20035;-75
2023/04/11 03:15:50;;;;;;;14.00;2.03;;;10.50;92.60;;;;;;5114725;28;20024;-76
2023/04/11 03:18:17;;;;;;;9.85;2.10;;;10.50;92.50;;;;;;5115485;28;20043;-75
2023/04/11 03:20:43;;;;;;;10.07;2.00;;;10.50;92.50;;;;;;5115462;28;20018;-76
2023/04/11 03:23:09;;;;;;;7.47;1.42;;;10.50;92.50;;;;;;5114424;28;20053;-75
2023/04/11 03:25:36;;;;;;;15.13;1.75;;;10.50;92.40;;;;;;5115396;28;20046;-76
2023/04/11 03:28:02;;;;;;;6.45;1.70;;;10.40;92.40;;;;;;5115322;28;20039;-76
2023/04/11 03:30:28;;;;;;;11.00;1.25;;;10.40;92.40;;;;;;5115186;28;20058;-76
2023/04/11 03:32:54;;;;;;;12.07;2.10;;;10.40;92.30;;;;;;5115195;28;20028;-75
2023/04/11 03:35:20;;;;;;;13.20;2.38;;;10.40;92.40;;;;;;5114129;28;20034;-75
2023/04/11 03:37:46;;;;;;;8.68;1.77;;;10.40;92.10;;;;;;5115051;28;20039;-75
2023/04/11 03:40:12;;;;;;;6.97;1.50;;;10.40;92.10;;;;;;5115063;28;20089;-75
2023/04/11 03:42:37;;;;;;;11.32;1.92;;;10.40;92.00;;;;;;5113800;28;20052;-75
2023/04/11 03:45:04;;;;;;;9.93;2.40;;;10.40;91.80;;;;;;5115004;28;20028;-76
2023/04/11 03:47:29;;;;;;;6.95;1.33;;;10.40;91.60;;;;;;5114946;28;20020;-75
2023/04/11 03:49:55;;;;;;;5.25;1.02;;;10.40;91.40;;;;;;5114802;28;20035;-75
2023/04/11 03:52:20;;;;;;;11.88;1.45;;;10.30;91.40;;;;;;5114806;28;20078;-76
2023/04/11 03:54:46;;;;;;;9.10;1.98;;;10.40;91.60;;;;;;5113871;28;20032;-75
2023/04/11 03:57:12;;;;;;;11.20;1.83;;;10.40;91.60;;;;;;5114739;28;20111;-75
2023/04/11 03:59:37;;;;;;;9.93;1.75;;;10.30;91.70;;;;;;5114650;28;20046;-76
2023/04/11 04:02:03;;;;;;;8.95;1.90;;;10.30;91.80;;;;;;5114545;28;20036;-75
2023/04/11 04:04:31;;;;;;;8.63;2.05;;;10.30;91.90;;;;;;5114603;28;20089;-76
2023/04/11 04:06:56;;;;;;;8.70;1.50;;;10.30;92.10;;;;;;5114580;28;20043;-76
2023/04/11 04:09:23;;;;;;;3.90;1.23;;;10.30;92.00;;;;;;5113916;28;20040;-75
2023/04/11 04:11:49;;;;;;;9.68;1.40;;;10.30;91.90;;;;;;5114467;28;20027;-75
2023/04/11 04:14:15;;;;;;;7.43;1.40;;;10.30;91.80;;;;;;5114392;28;20069;-76
2023/04/11 04:16:40;;;;;;;8.18;1.70;;;10.30;91.80;;;;;;5114381;28;20020;-75
2023/04/11 04:19:06;;;;;;;7.85;1.60;;;10.40;91.60;;;;;;5113277;28;20043;-75
2023/04/11 04:21:32;;;;;;;10.20;1.20;;;10.40;91.50;;;;;;5114272;28;20039;-75
2023/04/11 04:24:02;;;;;;;11.43;1.88;;;10.40;91.50;;;;;;5114241;28;20046;-75
2023/04/11 04:26:29;;;;;;;7.90;1.35;;;10.40;91.30;;;;;;5096984;28;20024;-76
2023/04/11 04:29:03;;;;;;;9.02;1.33;;;10.30;91.20;;;;;;5114229;28;20213;-75
2023/04/11 04:31:32;;;;;;;7.20;1.02;;;10.40;91.10;;;;;;5113296;28;20024;-75
2023/04/11 04:34:01;;;;;;;9.32;1.30;;;10.40;91.10;;;;;;5113988;28;20050;-76
2023/04/11 04:36:27;;;;;;;4.65;1.05;;;10.40;91.10;;;;;;5113912;28;20016;-75
2023/04/11 04:38:56;;;;;;;3.95;0.93;;;10.40;90.90;;;;;;5113978;28;20031;-75
2023/04/11 04:41:22;;;;;;;8.32;1.90;;;10.40;90.80;;;;;;5113958;28;20028;-76
2023/04/11 04:43:47;;;;;;;10.73;1.63;;;10.40;90.80;;;;;;5113709;28;20048;-76
2023/04/11 04:46:13;;;;;;;10.52;1.70;;;10.40;90.90;;;;;;5113762;28;20028;-76
2023/04/11 04:48:39;;;;;;;5.18;1.38;;;10.40;90.90;;;;;;5112782;28;20028;-76
2023/04/11 04:51:06;;;;;;;3.85;0.93;;;10.30;90.80;;;;;;5112864;28;20119;-76
2023/04/11 04:53:33;;;;;;;8.05;1.40;;;10.30;90.70;;;;;;5113779;28;20036;-76
2023/04/11 04:56:00;;;;;;;8.88;1.00;;;10.30;90.90;;;;;;5112696;28;20024;-76
2023/04/11 04:58:26;;;;;;;6.93;1.30;;;10.20;90.80;;;;;;5113718;28;20027;-76
2023/04/11 05:00:56;;;;;;;10.05;1.17;;;10.20;90.80;;;;;;5112696;28;20028;-75
2023/04/11 05:03:21;;;;;;;7.97;1.45;;;10.20;90.70;;;;;;5113752;28;20040;-74
2023/04/11 05:05:48;;;;;;;6.47;0.75;;;10.20;90.60;;;;;;5112563;28;20031;-76
2023/04/11 05:08:15;;;;;;;8.75;1.08;;;10.20;90.60;;;;;;5112679;28;20042;-76
2023/04/11 05:10:40;;;;;;;6.82;1.48;;;10.20;90.70;;;;;;5113428;28;20111;-75
2023/04/11 05:13:06;;;;;;;7.10;1.20;;;10.20;90.70;;;;;;5113476;28;20035;-76
2023/04/11 05:15:31;;;;;;;7.38;1.58;;;10.10;90.70;;;;;;5113605;28;20044;-75
2023/04/11 05:17:57;;;;;;;6.30;1.02;;;10.10;90.70;;;;;;5113425;28;20024;-75
2023/04/11 05:20:23;;;;;;;4.05;1.00;;;10.10;90.60;;;;;;5113578;28;20032;-75
2023/04/11 05:22:49;;;;;;;8.93;1.40;;;10.10;90.40;;;;;;5117233;28;20024;-75
2023/04/11 05:25:15;;;;;;;7.22;0.90;;;10.00;90.30;;;;;;5117620;28;20020;-75
2023/04/11 05:27:41;;;;;;;5.82;0.98;;;10.00;90.40;;;;;;5117553;28;20035;-75
2023/04/11 05:30:07;;;;;;;8.05;1.48;;;10.00;90.30;;;;;;5117405;28;20036;-75
2023/04/11 05:32:32;;;;;;;9.20;1.27;;;10.00;90.40;;;;;;5116589;28;20023;-75
2023/04/11 05:34:58;;;;;;;7.22;1.48;;;10.00;90.50;;;;;;5117388;28;20032;-75
2023/04/11 05:37:24;;;;;;;4.22;0.57;;;10.00;90.50;;;;;;5117435;28;20039;-76
2023/04/11 05:39:51;;;;;;;5.25;1.00;;;10.00;90.50;;;;;;5116596;28;20031;-76
2023/04/11 05:42:17;;;;;;;10.40;1.30;;;10.00;90.50;;;;;;5117144;28;20024;-75
2023/04/11 05:44:43;;;;;;;6.28;1.73;;;10.00;90.50;;;;;;5117346;28;20036;-76
2023/04/11 05:47:10;;;;;;;9.02;1.25;;;10.00;90.70;;;;;;5117265;28;20087;-75
2023/04/11 05:49:36;;;;;;;8.95;1.70;;;10.00;90.70;;;;;;5117162;28;20052;-75
2023/04/11 05:52:01;;;;;;;6.95;2.00;;;9.90;90.80;;;;;;5117142;28;20024;-75
2023/04/11 05:54:36;;;;;;;4.25;1.15;;;10.00;90.70;;;;;;5117062;28;20083;-75
2023/04/11 05:57:02;;;;;;;7.00;1.25;;;10.00;90.70;;;;;;5117009;28;20033;-75
2023/04/11 05:59:31;;;;;;;6.72;1.42;;;9.90;90.90;;;;;;5116968;28;20029;-75
2023/04/11 06:01:57;;;;;;;3.03;1.15;;;10.00;90.90;;;;;;5116940;28;20020;-75
2023/04/11 06:04:23;;;;;;;7.45;1.13;;;10.10;90.90;;;;;;5116889;28;20027;-75
2023/04/11 06:06:50;;;;;;;7.45;1.38;;;10.10;90.70;;;;;;5115978;28;20024;-75
2023/04/11 06:09:16;;;;;;;8.35;1.45;;;10.10;90.60;;;;;;5116725;28;20032;-75
2023/04/11 06:11:42;;;;;;;9.35;1.25;;;10.10;90.60;;;;;;5116813;28;20029;-76
2023/04/11 06:14:08;;;;;;;7.85;1.63;;;10.10;90.50;;;;;;5116732;28;20024;-76
2023/04/11 06:16:35;;;;;;;5.68;1.33;;;10.10;90.70;;;;;;5116626;28;20031;-76
2023/04/11 06:19:02;;;;;;;8.27;1.55;;;10.00;90.80;;;;;;5116676;28;20441;-75
2023/04/11 06:21:28;;;;;;;5.78;1.23;;;10.00;91.10;;;;;;5115675;28;20088;-75
2023/04/11 06:23:53;;;;;;;7.75;1.38;;;9.90;91.20;;;;;;5116566;28;20054;-75
2023/04/11 06:26:19;;;;;;;6.80;1.48;;;10.00;91.50;;;;;;5116477;28;20058;-75
2023/04/11 06:28:44;;;;;;;5.43;1.27;;;10.00;91.50;;;;;;5116414;28;20031;-75
2023/04/11 06:31:10;;;;;;;7.50;1.92;;;10.00;91.30;;;;;;5115567;28;20032;-75
2023/04/11 06:33:36;;;;;;;10.95;1.50;;;10.00;91.60;;;;;;5115843;28;20031;-75
2023/04/11 06:36:02;;;;;;;8.55;1.23;;;10.10;91.70;;;;;;5116323;28;20099;-76
2023/04/11 06:38:28;;;;;;;10.27;1.42;;;10.10;91.70;;;;;;5116330;28;20023;-75
2023/04/11 06:40:55;;;;;;;7.20;1.60;;;10.10;91.60;;;;;;5116255;28;20534;-76
2023/04/11 06:43:21;;;;;;;7.57;1.42;;;10.20;91.60;;;;;;5116030;28;20058;-75
2023/04/11 06:45:48;;;;;;;11.63;1.55;;;10.20;91.70;;;;;;5098356;28;20028;-76
2023/04/11 06:48:16;;;;;;;9.27;1.80;;;10.30;91.70;;;;;;5115080;28;20047;-75
2023/04/11 06:50:42;;;;;;;5.22;1.52;;;10.30;91.30;;;;;;5115972;28;20035;-75
2023/04/11 06:53:08;;;;;;;7.40;1.50;;;10.30;91.50;;;;;;5115985;28;20024;-75
2023/04/11 06:55:34;;;;;;;7.20;1.30;;;10.30;91.40;;;;;;5115049;28;20027;-75
2023/04/11 06:58:00;;;;;;;7.15;1.33;;;10.30;91.30;;;;;;5116055;28;20021;-75
2023/04/11 07:00:26;;;;;;;8.10;1.77;;;10.30;91.40;;;;;;5115868;28;20028;-75
2023/04/11 07:02:52;;;;;;;6.50;1.70;;;10.40;91.10;;;;;;5115847;28;20044;-75
2023/04/11 07:05:18;;;;;;;9.55;1.60;;;10.40;91.00;;;;;;5114864;28;20040;-75
2023/04/11 07:07:44;;;;;;;7.00;1.50;;;10.40;90.90;;;;;;5115847;28;20047;-74
2023/04/11 07:10:09;;;;;;;8.18;1.67;;;10.40;90.70;;;;;;5114604;28;20061;-75
2023/04/11 07:12:35;;;;;;;6.28;1.30;;;10.40;90.80;;;;;;5115672;28;20028;-76
2023/04/11 07:15:02;;;;;;;5.63;1.60;;;10.40;90.70;;;;;;5114634;28;20028;-76
2023/04/11 07:17:28;;;;;;;5.88;1.30;;;10.50;90.60;;;;;;5115570;28;20469;-75
2023/04/11 07:19:53;;;;;;;4.20;1.45;;;10.50;90.60;;;;;;5114625;28;20047;-75
2023/04/11 07:22:19;;;;;;;6.50;1.50;;;10.50;90.40;;;;;;5114515;28;20497;-74
2023/04/11 07:24:45;;;;;;;8.07;1.42;;;10.60;90.40;;;;;;5115377;28;20028;-75
2023/04/11 07:27:13;;;;;;;7.60;1.75;;;10.60;90.00;;;;;;5114449;28;20024;-75
2023/04/11 07:29:39;;;;;;;8.73;1.50;;;10.70;90.00;;;;;;5114144;28;20020;-75
2023/04/11 07:32:05;;;;;;;6.55;1.27;;;10.70;90.20;;;;;;5115217;28;20017;-75
2023/04/11 07:34:32;;;;;;;3.78;0.98;;;10.80;90.00;;;;;;5115122;28;20381;-75
2023/04/11 07:36:59;;;;;;;4.75;1.52;;;10.80;89.40;;;;;;5115188;28;20086;-75
2023/04/11 07:39:26;;;;;;;4.00;1.33;;;10.80;88.10;;;;;;5114199;28;20044;-75
2023/04/11 07:41:52;;;;;;;5.18;1.10;;;10.90;88.90;;;;;;5115057;28;20051;-75
2023/04/11 07:44:18;;;;;;;6.45;1.23;;;10.90;88.60;;;;;;5113160;28;20052;-75
2023/04/11 07:46:44;;;;;;;9.75;2.97;;;10.90;87.80;;;;;;5114180;28;20028;-75
2023/04/11 07:49:09;;;;;;;7.85;1.38;;;10.90;87.50;;;;;;5114830;28;20032;-75
2023/04/11 07:51:35;;;;;;;8.48;1.50;;;11.00;87.40;;;;;;5113898;28;20060;-75
2023/04/11 07:54:01;;;;;;;7.85;1.95;;;11.00;87.50;;;;;;5113886;28;20040;-74
2023/04/11 07:56:26;;;;;;;6.28;1.10;;;11.10;87.30;;;;;;5096844;28;20032;-74
2023/04/11 07:58:52;;;;;;;11.15;1.77;;;11.10;85.50;;;;;;5114728;28;20025;-73
2023/04/11 08:01:23;;;;;;;7.40;1.38;;;11.20;86.00;;;;;;5114658;28;20039;-75
2023/04/11 08:03:50;;;;;;;5.03;1.00;;;11.10;85.10;;;;;;5114568;28;20028;-75
2023/04/11 08:06:15;;;;;;;5.28;1.50;;;11.10;84.50;;;;;;5114585;28;20020;-75
2023/04/11 08:08:41;;;;;;;8.98;1.85;;;11.20;84.20;;;;;;5114437;28;20050;-75
2023/04/11 08:11:07;;;;;;;9.02;1.60;;;11.20;84.20;;;;;;5113547;28;20024;-75
2023/04/11 08:13:32;;;;;;;9.88;1.45;;;11.30;83.80;;;;;;5114554;28;20051;-75
2023/04/11 08:15:58;;;;;;;2.53;0.82;;;11.30;83.10;;;;;;5114460;28;20027;-73
2023/04/11 08:18:24;;;;;;;10.57;2.05;;;11.30;81.90;;;;;;5113472;28;20078;-73
2023/04/11 08:20:49;;;;;;;6.22;1.10;;;11.30;82.70;;;;;;5114362;28;20020;-73
2023/04/11 08:23:18;;;;;;;4.63;1.38;;;11.30;83.80;;;;;;5114253;28;20083;-73
2023/04/11 08:25:44;;;;;;;10.43;1.17;;;11.30;83.40;;;;;;5114237;28;20016;-73
2023/04/11 08:28:11;;;;;;;3.05;1.20;;;11.30;83.20;;;;;;5114164;28;20074;-73
2023/04/11 08:30:36;;;;;;;3.92;1.30;;;11.40;83.90;;;;;;5114065;28;20032;-73
2023/04/11 08:33:02;;;;;;;6.45;1.90;;;11.50;81.70;;;;;;5114054;28;20076;-75
2023/04/11 08:35:28;;;;;;;5.15;1.00;;;11.50;80.60;;;;;;5114068;28;20333;-75
2023/04/11 08:37:53;;;;;;;3.22;1.33;;;11.60;79.40;;;;;;5112991;28;20096;-74
2023/04/11 08:40:19;;;;;;;5.88;1.40;;;11.60;80.70;;;;;;5113212;28;20079;-74
2023/04/11 08:42:46;;;;;;;6.18;1.45;;;11.70;81.20;;;;;;5113644;28;20074;-75
2023/04/11 08:45:12;;;;;;;4.78;1.15;;;11.80;80.20;;;;;;5112933;28;20036;-75
2023/04/11 08:47:37;;;;;;;3.03;1.13;;;11.80;78.30;;;;;;5113861;28;20030;-75
2023/04/11 08:50:04;;;;;;;4.13;0.82;;;11.80;78.90;;;;;;5112814;28;20028;-76
2023/04/11 08:52:31;;;;;;;3.15;1.27;;;11.70;78.70;;;;;;5112834;28;20073;-74
2023/04/11 08:54:57;;;;;;;6.60;1.27;;;11.70;78.40;;;;;;5113618;28;20107;-74
2023/04/11 08:57:33;;;;;;;4.90;1.30;;;11.60;79.30;;;;;;5113708;28;20021;-74
2023/04/11 09:00:35;;;;;;;3.53;1.13;;;11.60;80.30;;;;;;5113749;28;20083;-74
2023/04/11 09:02:55;;;;;;;4.22;1.20;;;11.50;78.30;;;;;;5110625;28;20032;-75
2023/04/11 09:05:34;;;;;;;7.45;1.23;;;11.40;77.30;;;;;;5113600;28;20028;-75
2023/04/11 09:08:09;;;;;;;3.42;1.08;;;11.50;78.60;;;;;;5095767;28;20024;-75
2023/04/11 09:10:36;;;;;;;4.68;1.17;;;11.50;77.20;;;;;;5113565;28;20027;-75
2023/04/11 09:13:24;;;;;;;6.63;1.48;;;11.60;78.40;;;;;;5113518;28;20087;-75
2023/04/11 09:16:11;;;;;;;7.15;1.27;;;11.70;77.60;;;;;;5112594;28;20028;-75
2023/04/11 09:18:42;;;;;;;8.40;1.63;;;11.80;79.10;;;;;;5113377;28;20031;-75
2023/04/11 09:21:10;;;;;;;9.40;1.50;;;11.80;78.60;;;;;;5113480;28;20020;-75
2023/04/11 09:23:36;;;;;;;5.60;0.90;;;11.80;79.80;;;;;;5113468;28;20484;-74
2023/04/11 09:26:05;;;;;;;5.88;1.15;;;11.80;79.60;;;;;;5113353;28;20028;-75
2023/04/11 09:28:51;;;;;;;6.05;1.77;;;11.80;80.90;;;;;;5113311;28;20013;-74
2023/04/11 09:31:16;;;;;;;4.00;1.40;;;11.80;81.30;;;;;;5113420;28;20029;-75
2023/04/11 09:33:53;;;;;;;4.53;1.23;;;11.70;81.80;;;;;;5113243;28;20020;-75
2023/04/11 09:36:23;;;;;;;6.65;1.17;;;11.70;82.10;;;;;;5113296;28;20030;-75
2023/04/11 09:38:50;;;;;;;6.03;1.40;;;11.70;82.40;;;;;;5112365;28;20385;-74
2023/04/11 09:41:31;;;;;;;4.35;1.20;;;11.60;82.10;;;;;;5113326;28;20025;-75
2023/04/11 09:43:57;;;;;;;3.72;1.00;;;11.70;83.30;;;;;;5112128;28;20060;-74
2023/04/11 09:46:24;;;;;;;4.47;1.15;;;11.70;82.10;;;;;;5113224;28;20063;-75
2023/04/11 09:48:50;;;;;;;3.33;1.00;;;11.60;81.90;;;;;;5113145;28;20016;-75
2023/04/11 09:51:18;;;;;;;5.05;0.93;;;11.60;82.50;;;;;;5113139;28;20046;-75
2023/04/11 09:53:44;;;;;;;4.82;1.25;;;11.60;82.10;;;;;;5112225;28;20020;-75
2023/04/11 09:56:10;;;;;;;7.28;1.13;;;11.60;81.80;;;;;;5113125;28;20022;-75
2023/04/11 09:58:37;;;;;;;6.15;1.33;;;11.60;82.30;;;;;;5113083;28;20051;-75
2023/04/11 10:01:06;;;;;;;3.60;1.10;;;11.70;83.30;;;;;;5112088;28;20035;-75
2023/04/11 10:03:33;;;;;;;5.57;1.05;;;11.80;82.80;;;;;;5112013;28;20029;-75
2023/04/11 10:06:02;;;;;;;3.30;1.00;;;11.80;80.50;;;;;;5112027;28;20024;-75
2023/04/11 10:08:31;;;;;;;6.10;1.20;;;11.90;81.00;;;;;;5114911;28;20020;-75
2023/04/11 10:11:06;;;;;;;4.10;0.93;;;11.90;80.20;;;;;;5116746;28;20036;-75
2023/04/11 10:13:40;;;;;;;6.30;1.00;;;12.00;77.70;;;;;;5116882;28;20020;-75
2023/04/11 10:16:14;;;;;;;7.90;1.40;;;11.90;75.00;;;;;;5116814;28;20051;-75
2023/04/11 10:19:06;;;;;;;5.07;0.77;;;11.80;74.30;;;;;;5116727;28;20020;-75
2023/04/11 10:21:31;;;;;;;3.40;0.93;;;11.70;74.70;;;;;;5107568;28;20036;-75
2023/04/11 10:24:08;;;;;;;4.20;1.02;;;11.80;75.50;;;;;;5116568;28;20027;-75
2023/04/11 10:26:54;;;;;;;3.95;0.68;;;11.80;73.80;;;;;;5116494;28;20026;-76
2023/04/11 10:29:32;;;;;;;4.85;0.80;;;11.80;74.20;;;;;;5116448;28;20031;-75
2023/04/11 10:32:16;;;;;;;3.20;1.08;;;11.90;72.80;;;;;;5116415;28;20040;-75
2023/04/11 10:34:51;;;;;;;5.93;1.42;;;12.10;73.80;;;;;;5116398;28;20012;-75
2023/04/11 10:37:18;;;;;;;2.38;0.68;;;12.30;74.80;;;;;;5115324;28;20050;-75
2023/04/11 10:39:49;;;;;;;7.60;1.30;;;12.50;73.80;;;;;;5115254;28;20028;-75
2023/04/11 10:42:28;;;;;;;6.32;1.25;;;12.70;73.40;;;;;;5116226;28;20035;-76
2023/04/11 10:45:12;;;;;;;5.35;1.08;;;12.80;70.50;;;;;;5116321;28;20044;-76
2023/04/11 10:47:38;;;;;;;4.93;1.00;;;13.00;72.60;;;;;;5116099;28;20034;-76
2023/04/11 10:50:23;;;;;;;3.53;1.27;;;13.20;70.50;;;;;;5115070;28;20047;-75
2023/04/11 10:52:49;;;;;;;2.63;0.90;;;13.30;68.60;;;;;;5115889;28;20021;-75
2023/04/11 10:55:16;;;;;;;4.10;0.88;;;13.40;62.70;;;;;;5115985;28;20035;-74
2023/04/11 10:58:07;;;;;;;2.28;0.70;;;13.50;62.90;;;;;;5114977;28;20405;-74
2023/04/11 11:00:51;;;;;;;4.15;0.93;;;13.50;61.50;;;;;;5115848;28;20054;-76
2023/04/11 11:03:21;;;;;;;3.55;0.82;;;13.60;61.40;;;;;;5115840;28;20024;-75
2023/04/11 11:05:55;;;;;;;4.63;0.80;;;13.60;62.00;;;;;;5115997;28;20127;-75
2023/04/11 11:08:31;;;;;;;3.30;1.00;;;13.80;63.00;;;;;;5115803;28;20025;-75
2023/04/11 11:11:05;;;;;;;3.95;1.00;;;14.00;66.20;;;;;;5115785;28;20542;-74
2023/04/11 11:13:42;;;;;;;3.00;1.00;;;14.10;62.40;;;;;;5115658;28;20050;-75
2023/04/11 11:16:12;;;;;;;3.65;0.85;;;14.10;63.10;;;;;;5115646;28;20016;-75
2023/04/11 11:18:37;;;;;;;1.55;0.60;;;14.00;63.00;;;;;;5114377;28;20040;-74
2023/04/11 11:21:03;;;;;;;2.80;0.50;;;13.90;62.60;;;;;;5114510;28;20039;-74
2023/04/11 11:23:29;;;;;;;3.65;1.05;;;13.90;63.20;;;;;;5115480;28;20046;-74
2023/04/11 11:25:57;;;;;;;2.35;0.75;;;14.00;64.60;;;;;;5114410;28;20031;-74
2023/04/11 11:28:23;;;;;;;5.43;0.90;;;14.10;63.90;;;;;;5115359;28;20084;-74
2023/04/11 11:30:53;;;;;;;4.45;0.90;;;14.00;62.50;;;;;;5115242;28;20048;-74
2023/04/11 11:33:21;;;;;;;6.03;1.30;;;14.10;63.80;;;;;;5115225;28;20024;-74
2023/04/11 11:35:50;;;;;;;7.60;1.00;;;14.20;64.90;;;;;;5115229;28;20024;-74
2023/04/11 11:38:17;;;;;;;3.13;0.85;;;14.20;65.80;;;;;;5115177;28;20020;-74
2023/04/11 11:40:45;;;;;;;4.30;0.88;;;14.40;65.90;;;;;;5115134;28;20036;-74
2023/04/11 11:43:11;;;;;;;4.38;0.80;;;14.40;63.00;;;;;;5114910;28;20104;-74
2023/04/11 11:45:36;;;;;;;2.42;0.57;;;14.50;63.10;;;;;;5113996;28;20043;-73
2023/04/11 11:48:02;;;;;;;3.83;1.15;;;14.50;59.40;;;;;;5114947;28;20024;-73
2023/04/11 11:50:30;;;;;;;4.00;0.88;;;14.50;61.50;;;;;;5113984;28;20032;-74
2023/04/11 11:53:11;;;;;;;5.00;0.80;;;14.50;56.90;;;;;;5113939;28;20020;-75
2023/04/11 11:55:37;;;;;;;1.88;0.80;;;14.50;55.30;;;;;;5113844;28;20031;-74
2023/04/11 11:58:03;;;;;;;3.35;1.10;;;14.60;53.00;;;;;;5113919;28;20024;-74
2023/04/11 12:00:39;;;;;;;5.55;1.10;;;14.60;52.40;;;;;;5114693;28;20024;-74
2023/04/11 12:03:08;;;;;;;3.55;0.82;;;14.70;53.90;;;;;;5114781;28;20031;-74
2023/04/11 12:05:34;;;;;;;2.08;0.43;;;15.00;56.30;;;;;;5113604;28;20028;-74
2023/04/11 12:08:03;;;;;;;5.18;0.77;;;15.00;51.00;;;;;;5114606;28;20035;-74
2023/04/11 12:10:39;;;;;;;4.07;0.75;;;15.00;49.70;;;;;;5113581;28;20024;-74
2023/04/11 12:13:18;;;;;;;3.67;0.60;;;15.10;50.80;;;;;;5114512;28;20050;-74
2023/04/11 12:15:52;;;;;;;2.42;0.30;;;15.00;50.10;;;;;;5114448;28;20016;-75
2023/04/11 12:18:27;;;;;;;3.95;0.75;;;15.00;45.60;;;;;;5114586;28;20027;-74
2023/04/11 12:20:53;;;;;;;0.80;0.60;;;14.90;50.00;;;;;;5114389;28;20025;-74
2023/04/11 12:23:19;;;;;;;2.22;0.57;;;15.00;50.40;;;;;;5114348;28;20055;-74
2023/04/11 12:25:45;;;;;;;2.90;0.63;;;15.00;49.20;;;;;;5113367;28;20051;-74
2023/04/11 12:28:11;;;;;;;2.30;0.68;;;15.00;51.50;;;;;;5114224;28;20024;-74
2023/04/11 12:30:37;;;;;;;5.22;0.52;;;14.90;50.50;;;;;;5113695;28;20043;-74
2023/04/11 12:33:03;;;;;;;3.67;0.50;;;15.00;50.30;;;;;;5114073;28;20020;-74
2023/04/11 12:35:30;;;;;;;3.30;0.90;;;15.10;50.00;;;;;;5113144;28;20046;-74
2023/04/11 12:37:55;;;;;;;2.35;0.60;;;15.20;50.40;;;;;;5114046;28;20024;-74
2023/04/11 12:40:21;;;;;;;4.25;0.85;;;15.10;45.50;;;;;;5114020;28;20091;-74
2023/04/11 12:42:47;;;;;;;2.20;0.68;;;14.90;46.50;;;;;;5113751;28;20070;-75
2023/04/11 12:45:15;;;;;;;1.75;0.60;;;15.00;48.80;;;;;;5113931;28;20055;-76